Time;durP1;ratioP1;P1;durP2;ratioP2;P2;SDS_P1;SDS_P2;PMS_P1;PMS_P2;Temp;Humidity;BMP_temperature;BMP_pressure;BME280_temperature;BME280_humidity;BME280_pressure;Samples;Min_cycle;Max_cycle;Signal;HPM_P1;HPM_P2
2024/04/15 00:01:01;;;;;;;2.95;2.22;;;;;;;;;;5494625;26;20377;-82
2024/04/15 00:03:27;;;;;;;1.95;1.85;;;;;;;;;;5494099;26;20338;-82
2024/04/15 00:05:53;;;;;;;2.15;2.05;;;;;;;;;;5494239;26;20742;-82
2024/04/15 00:08:19;;;;;;;3.15;2.00;;;;;;;;;;5493370;26;20369;-82
2024/04/15 00:10:45;;;;;;;2.30;2.10;;;;;;;;;;5492993;26;20658;-82
2024/04/15 00:13:11;;;;;;;2.10;1.90;;;;;;;;;;5493733;26;21152;-82
2024/04/15 00:15:37;;;;;;;2.20;2.00;;;;;;;;;;5493686;26;20859;-82
2024/04/15 00:18:03;;;;;;;4.53;1.80;;;;;;;;;;5493488;26;20311;-82
2024/04/15 00:20:29;;;;;;;2.30;2.10;;;;;;;;;;5492847;26;20352;-82
2024/04/15 00:22:56;;;;;;;2.35;1.85;;;;;;;;;;5493547;26;20318;-82
2024/04/15 00:25:22;;;;;;;2.70;2.00;;;;;;;;;;5493523;26;20397;-82
2024/04/15 00:27:48;;;;;;;2.88;2.10;;;;;;;;;;5493111;26;20378;-82
2024/04/15 00:30:14;;;;;;;3.92;2.10;;;;;;;;;;5493032;26;20323;-82
2024/04/15 00:32:40;;;;;;;2.10;1.90;;;;;;;;;;5493353;26;20753;-82
2024/04/15 00:35:06;;;;;;;3.60;2.00;;;;;;;;;;5493966;26;20315;-82
2024/04/15 00:37:32;;;;;;;2.20;2.00;;;;;;;;;;5493372;26;20377;-82
2024/04/15 00:39:58;;;;;;;2.10;1.90;;;;;;;;;;5492405;26;20319;-82
2024/04/15 00:42:24;;;;;;;2.45;2.10;;;;;;;;;;5479071;26;20409;-82
2024/04/15 00:44:51;;;;;;;3.50;1.90;;;;;;;;;;5493046;26;20401;-82
2024/04/15 00:47:17;;;;;;;2.40;2.10;;;;;;;;;;5493987;26;20318;-82
2024/04/15 00:49:43;;;;;;;2.28;2.08;;;;;;;;;;5492734;26;20315;-82
2024/04/15 00:52:10;;;;;;;2.15;1.80;;;;;;;;;;5493098;26;20330;-82
2024/04/15 00:54:38;;;;;;;2.45;1.92;;;;;;;;;;5492982;26;20348;-82
2024/04/15 00:57:04;;;;;;;2.78;2.03;;;;;;;;;;5493196;26;20322;-82
2024/04/15 00:59:30;;;;;;;2.30;2.10;;;;;;;;;;5493594;26;20310;-82
2024/04/15 01:01:57;;;;;;;2.00;1.90;;;;;;;;;;5492593;26;20314;-82
2024/04/15 01:04:23;;;;;;;2.60;2.00;;;;;;;;;;5493354;26;20314;-81
2024/04/15 01:06:49;;;;;;;3.13;2.10;;;;;;;;;;5493285;26;20374;-81
2024/04/15 01:09:15;;;;;;;2.40;2.10;;;;;;;;;;5493331;26;20323;-81
2024/04/15 01:11:41;;;;;;;2.50;2.30;;;;;;;;;;5493829;26;20393;-82
2024/04/15 01:14:07;;;;;;;2.08;1.88;;;;;;;;;;5491627;26;20799;-81
2024/04/15 01:16:36;;;;;;;2.45;2.25;;;;;;;;;;5492885;26;20704;-82
2024/04/15 01:19:02;;;;;;;2.63;2.20;;;;;;;;;;5493172;26;20479;-81
2024/04/15 01:21:28;;;;;;;2.60;2.30;;;;;;;;;;5493641;26;20322;-82
2024/04/15 01:23:54;;;;;;;2.60;2.40;;;;;;;;;;5491779;26;20396;-81
2024/04/15 01:26:20;;;;;;;2.67;2.30;;;;;;;;;;5492837;26;20314;-82
2024/04/15 01:28:46;;;;;;;3.75;2.60;;;;;;;;;;5492879;26;20322;-81
2024/04/15 01:31:12;;;;;;;2.27;2.17;;;;;;;;;;5492303;26;20756;-81
2024/04/15 01:33:38;;;;;;;5.07;2.30;;;;;;;;;;5492840;26;20318;-81
2024/04/15 01:36:05;;;;;;;2.50;2.30;;;;;;;;;;5492077;26;20342;-81
2024/04/15 01:38:31;;;;;;;2.65;2.45;;;;;;;;;;5492330;26;20318;-81
2024/04/15 01:40:56;;;;;;;2.28;2.00;;;;;;;;;;5477507;26;20329;-82
2024/04/15 01:43:23;;;;;;;2.70;2.20;;;;;;;;;;5467489;26;20489;-81
2024/04/15 01:45:49;;;;;;;2.33;2.13;;;;;;;;;;5492636;26;20322;-81
2024/04/15 01:48:15;;;;;;;2.30;2.17;;;;;;;;;;5492778;26;20401;-82
2024/04/15 01:50:41;;;;;;;2.40;2.20;;;;;;;;;;5493288;26;20408;-82
2024/04/15 01:53:11;;;;;;;2.37;2.17;;;;;;;;;;5492909;26;20773;-81
2024/04/15 01:55:37;;;;;;;2.67;2.20;;;;;;;;;;5492625;26;20467;-81
2024/04/15 01:58:03;;;;;;;3.90;2.30;;;;;;;;;;5492317;26;20363;-82
2024/04/15 02:00:29;;;;;;;2.30;1.98;;;;;;;;;;5491951;26;20330;-81
2024/04/15 02:02:55;;;;;;;2.15;2.00;;;;;;;;;;5492294;26;20351;-81
2024/04/15 02:05:21;;;;;;;2.47;2.00;;;;;;;;;;5492185;26;20331;-81
2024/04/15 02:07:48;;;;;;;2.60;2.20;;;;;;;;;;5491583;26;20342;-81
2024/04/15 02:10:14;;;;;;;3.63;2.25;;;;;;;;;;5491677;26;20351;-81
2024/04/15 02:12:40;;;;;;;2.72;2.47;;;;;;;;;;5492002;26;20327;-82
2024/04/15 02:15:06;;;;;;;2.35;2.15;;;;;;;;;;5491779;26;20358;-82
2024/04/15 02:17:32;;;;;;;2.70;2.50;;;;;;;;;;5491870;26;20330;-82
2024/04/15 02:19:58;;;;;;;3.38;2.40;;;;;;;;;;5491960;26;20409;-81
2024/04/15 02:22:24;;;;;;;2.60;2.40;;;;;;;;;;5491943;26;20323;-81
2024/04/15 02:24:50;;;;;;;3.67;2.42;;;;;;;;;;5492510;26;20353;-81
2024/04/15 02:27:16;;;;;;;3.80;2.30;;;;;;;;;;5491466;26;21039;-82
2024/04/15 02:29:42;;;;;;;2.07;1.97;;;;;;;;;;5495961;26;20438;-81
2024/04/15 02:32:08;;;;;;;2.08;1.88;;;;;;;;;;5496161;26;20719;-81
2024/04/15 02:34:34;;;;;;;2.20;2.00;;;;;;;;;;5493745;26;20363;-81
2024/04/15 02:37:00;;;;;;;1.90;1.80;;;;;;;;;;5495976;26;20374;-82
2024/04/15 02:39:26;;;;;;;2.60;2.00;;;;;;;;;;5495591;26;20676;-81
2024/04/15 02:41:52;;;;;;;2.10;1.90;;;;;;;;;;5480414;26;20322;-82
2024/04/15 02:44:18;;;;;;;2.13;1.98;;;;;;;;;;5496452;26;20315;-81
2024/04/15 02:46:44;;;;;;;2.47;2.08;;;;;;;;;;5487441;26;20360;-81
2024/04/15 02:49:10;;;;;;;2.38;2.15;;;;;;;;;;5479517;26;20327;-81
2024/04/15 02:51:36;;;;;;;2.05;1.90;;;;;;;;;;5495889;26;20322;-81
2024/04/15 02:54:02;;;;;;;1.88;1.77;;;;;;;;;;5494796;26;20334;-81
2024/04/15 02:56:28;;;;;;;2.22;1.75;;;;;;;;;;5494352;26;20668;-81
2024/04/15 02:58:54;;;;;;;2.50;2.07;;;;;;;;;;5492578;26;20363;-82
2024/04/15 03:01:20;;;;;;;2.38;1.90;;;;;;;;;;5495246;26;20319;-82
2024/04/15 03:03:46;;;;;;;3.58;2.15;;;;;;;;;;5494483;26;20356;-81
2024/04/15 03:06:12;;;;;;;2.28;1.77;;;;;;;;;;5494066;26;20690;-81
2024/04/15 03:08:39;;;;;;;2.17;1.97;;;;;;;;;;5492333;26;20326;-82
2024/04/15 03:11:11;;;;;;;2.42;2.22;;;;;;;;;;5494908;26;20410;-82
2024/04/15 03:13:37;;;;;;;2.45;2.15;;;;;;;;;;5495925;26;20389;-82
2024/04/15 03:16:04;;;;;;;1.98;1.77;;;;;;;;;;5495054;26;20322;-82
2024/04/15 03:18:30;;;;;;;2.20;2.10;;;;;;;;;;5494487;26;20323;-82
2024/04/15 03:20:56;;;;;;;1.98;1.88;;;;;;;;;;5493872;26;20362;-82
2024/04/15 03:23:22;;;;;;;1.90;1.80;;;;;;;;;;5494194;26;20496;-82
2024/04/15 03:25:48;;;;;;;2.10;2.00;;;;;;;;;;5495472;26;20344;-82
2024/04/15 03:28:14;;;;;;;1.80;1.70;;;;;;;;;;5494888;26;20338;-82
2024/04/15 03:30:39;;;;;;;2.28;1.83;;;;;;;;;;5494910;26;20343;-82
2024/04/15 03:33:05;;;;;;;3.55;2.03;;;;;;;;;;5494522;26;20327;-82
2024/04/15 03:35:31;;;;;;;2.17;2.08;;;;;;;;;;5494956;26;20323;-82
2024/04/15 03:37:57;;;;;;;3.20;2.13;;;;;;;;;;5494309;26;20338;-82
2024/04/15 03:40:23;;;;;;;2.60;1.93;;;;;;;;;;5487487;26;20441;-82
2024/04/15 03:42:49;;;;;;;1.70;1.60;;;;;;;;;;5486682;26;20851;-82
2024/04/15 03:45:15;;;;;;;2.15;1.95;;;;;;;;;;5494735;26;20349;-82
2024/04/15 03:47:41;;;;;;;2.65;2.03;;;;;;;;;;5494524;26;20314;-82
2024/04/15 03:50:07;;;;;;;1.90;1.80;;;;;;;;;;5494593;26;20851;-82
2024/04/15 03:52:33;;;;;;;2.42;1.80;;;;;;;;;;5494388;26;20353;-82
2024/04/15 03:55:00;;;;;;;2.20;1.80;;;;;;;;;;5494617;26;20443;-82
2024/04/15 03:57:26;;;;;;;2.10;1.90;;;;;;;;;;5494864;26;20386;-82
2024/04/15 03:59:52;;;;;;;1.85;1.75;;;;;;;;;;5494987;26;20342;-82
2024/04/15 04:02:18;;;;;;;2.10;1.90;;;;;;;;;;5494358;26;20351;-82
2024/04/15 04:04:47;;;;;;;2.00;1.90;;;;;;;;;;5494059;26;20338;-82
2024/04/15 04:07:13;;;;;;;2.13;1.90;;;;;;;;;;5494623;26;20426;-82
2024/04/15 04:09:39;;;;;;;2.65;1.83;;;;;;;;;;5495187;26;20330;-82
2024/04/15 04:12:05;;;;;;;2.78;1.85;;;;;;;;;;5494233;26;20396;-82
2024/04/15 04:14:31;;;;;;;1.95;1.80;;;;;;;;;;5492663;26;20323;-82
2024/04/15 04:16:57;;;;;;;2.65;2.08;;;;;;;;;;5494473;26;20384;-82
2024/04/15 04:19:23;;;;;;;2.38;2.08;;;;;;;;;;5493378;26;20851;-82
2024/04/15 04:21:49;;;;;;;2.90;1.98;;;;;;;;;;5494434;26;20399;-82
2024/04/15 04:24:15;;;;;;;2.00;1.80;;;;;;;;;;5495202;26;20326;-83
2024/04/15 04:26:41;;;;;;;1.95;1.80;;;;;;;;;;5496123;26;20412;-83
2024/04/15 04:29:07;;;;;;;2.30;1.90;;;;;;;;;;5494123;26;20847;-82
2024/04/15 04:31:33;;;;;;;2.25;1.90;;;;;;;;;;5496018;26;20314;-82
2024/04/15 04:33:59;;;;;;;3.17;2.27;;;;;;;;;;5495281;26;20314;-82
2024/04/15 04:36:25;;;;;;;1.85;1.75;;;;;;;;;;5494760;26;20319;-83
2024/04/15 04:38:53;;;;;;;2.05;1.90;;;;;;;;;;5495126;26;20323;-83
2024/04/15 04:41:19;;;;;;;2.05;1.85;;;;;;;;;;5477833;26;20318;-83
2024/04/15 04:43:45;;;;;;;2.17;1.98;;;;;;;;;;5493811;26;20741;-82
2024/04/15 04:46:14;;;;;;;2.65;2.20;;;;;;;;;;5494556;26;20318;-83
2024/04/15 04:48:40;;;;;;;3.38;2.13;;;;;;;;;;5490223;26;20898;-83
2024/04/15 04:51:06;;;;;;;2.92;2.38;;;;;;;;;;5492862;26;20879;-84
2024/04/15 04:53:32;;;;;;;3.40;2.40;;;;;;;;;;5494476;26;20314;-84
2024/04/15 04:56:11;;;;;;;2.10;1.90;;;;;;;;;;5493964;26;20326;-84
2024/04/15 04:58:41;;;;;;;3.10;2.55;;;;;;;;;;5493831;26;20335;-84
2024/04/15 05:01:10;;;;;;;5.28;2.35;;;;;;;;;;5493926;26;20653;-83
2024/04/15 05:03:40;;;;;;;2.80;2.35;;;;;;;;;;5493271;26;20322;-83
2024/04/15 05:06:06;;;;;;;2.10;1.90;;;;;;;;;;5490575;26;20417;-82
2024/04/15 05:08:32;;;;;;;2.40;2.20;;;;;;;;;;5491599;26;20367;-83
2024/04/15 05:11:00;;;;;;;2.67;2.13;;;;;;;;;;5491827;26;20497;-83
2024/04/15 05:13:27;;;;;;;2.58;2.38;;;;;;;;;;5492405;26;20448;-84
2024/04/15 05:15:53;;;;;;;4.07;2.58;;;;;;;;;;5493080;26;20424;-84
2024/04/15 05:18:19;;;;;;;4.00;2.80;;;;;;;;;;5493031;26;20334;-83
2024/04/15 05:20:45;;;;;;;4.20;2.70;;;;;;;;;;5492599;26;20733;-83
2024/04/15 05:23:11;;;;;;;3.75;2.83;;;;;;;;;;5493242;26;20334;-84
2024/04/15 05:25:37;;;;;;;3.63;2.92;;;;;;;;;;5493181;26;20371;-84
2024/04/15 05:28:03;;;;;;;4.85;3.17;;;;;;;;;;5491948;26;20839;-84
2024/04/15 05:30:29;;;;;;;3.13;2.70;;;;;;;;;;5493058;26;20690;-84
2024/04/15 05:32:55;;;;;;;3.25;2.70;;;;;;;;;;5492847;26;20355;-84
2024/04/15 05:35:21;;;;;;;3.10;2.50;;;;;;;;;;5493380;26;20356;-84
2024/04/15 05:37:47;;;;;;;4.55;2.72;;;;;;;;;;5493291;26;20314;-84
2024/04/15 05:40:13;;;;;;;3.53;2.45;;;;;;;;;;5493050;26;20664;-84
2024/04/15 05:42:39;;;;;;;2.40;2.20;;;;;;;;;;5493186;26;20436;-84
2024/04/15 05:45:05;;;;;;;3.00;2.70;;;;;;;;;;5467463;26;20413;-84
2024/04/15 05:47:31;;;;;;;3.75;3.35;;;;;;;;;;5492390;26;20369;-84
2024/04/15 05:49:57;;;;;;;4.93;4.28;;;;;;;;;;5491622;26;20370;-84
2024/04/15 05:52:23;;;;;;;5.15;3.20;;;;;;;;;;5492181;26;20318;-85
2024/04/15 05:54:49;;;;;;;5.65;3.70;;;;;;;;;;5492346;26;20366;-84
2024/04/15 05:57:15;;;;;;;3.55;2.90;;;;;;;;;;5492304;26;20359;-84
2024/04/15 05:59:41;;;;;;;4.00;2.90;;;;;;;;;;5492285;26;20322;-84
2024/04/15 06:02:07;;;;;;;3.13;2.70;;;;;;;;;;5493928;26;20395;-83
2024/04/15 06:04:35;;;;;;;9.65;6.68;;;;;;;;;;5495865;26;20326;-84
2024/04/15 06:07:02;;;;;;;5.75;3.78;;;;;;;;;;5496271;26;20322;-84
2024/04/15 06:09:28;;;;;;;3.63;3.20;;;;;;;;;;5496466;26;20416;-84
2024/04/15 06:11:54;;;;;;;5.15;3.60;;;;;;;;;;5496874;26;20375;-85
2024/04/15 06:14:22;;;;;;;4.13;3.00;;;;;;;;;;5496752;26;20319;-84
2024/04/15 06:16:52;;;;;;;4.78;3.28;;;;;;;;;;5496121;26;20365;-84
2024/04/15 06:19:18;;;;;;;3.05;2.72;;;;;;;;;;5496382;26;20423;-84
2024/04/15 06:21:44;;;;;;;5.82;3.13;;;;;;;;;;5497022;26;20377;-84
2024/04/15 06:24:10;;;;;;;5.17;3.57;;;;;;;;;;5496914;26;20330;-84
2024/04/15 06:26:40;;;;;;;3.42;3.00;;;;;;;;;;5497313;26;20367;-84
2024/04/15 06:29:06;;;;;;;4.55;3.45;;;;;;;;;;5497216;26;20322;-84
2024/04/15 06:31:32;;;;;;;4.28;3.50;;;;;;;;;;5497026;26;20371;-84
2024/04/15 06:34:02;;;;;;;5.90;4.37;;;;;;;;;;5497713;26;20366;-84
2024/04/15 06:36:28;;;;;;;6.63;3.88;;;;;;;;;;5496605;26;20416;-84
2024/04/15 06:38:54;;;;;;;5.03;3.77;;;;;;;;;;5497535;26;20338;-84
2024/04/15 06:41:20;;;;;;;4.18;3.45;;;;;;;;;;5480803;26;20653;-84
2024/04/15 06:43:46;;;;;;;4.97;3.80;;;;;;;;;;5497033;26;20405;-84
2024/04/15 06:46:12;;;;;;;4.30;3.58;;;;;;;;;;5493578;26;20318;-84
2024/04/15 06:48:40;;;;;;;5.80;3.25;;;;;;;;;;5496680;26;20428;-84
2024/04/15 06:51:06;;;;;;;3.75;3.33;;;;;;;;;;5497186;26;20450;-84
2024/04/15 06:53:32;;;;;;;4.35;3.90;;;;;;;;;;5496683;26;20397;-84
2024/04/15 06:55:59;;;;;;;4.13;3.70;;;;;;;;;;5497208;26;20338;-84
2024/04/15 06:58:26;;;;;;;3.67;3.33;;;;;;;;;;5495587;26;20323;-84
2024/04/15 07:00:52;;;;;;;3.90;3.58;;;;;;;;;;5470102;26;20318;-84
2024/04/15 07:03:18;;;;;;;6.00;3.90;;;;;;;;;;5495452;26;20823;-84
2024/04/15 07:05:45;;;;;;;4.22;3.38;;;;;;;;;;5494995;26;20354;-83
2024/04/15 07:08:11;;;;;;;4.45;3.33;;;;;;;;;;5494956;26;20709;-84
2024/04/15 07:10:37;;;;;;;4.03;3.60;;;;;;;;;;5495622;26;20334;-84
2024/04/15 07:13:03;;;;;;;4.93;3.95;;;;;;;;;;5494541;26;20322;-84
2024/04/15 07:15:29;;;;;;;5.15;4.05;;;;;;;;;;5495686;26;20376;-84
2024/04/15 07:17:55;;;;;;;4.30;3.90;;;;;;;;;;5495538;26;20323;-84
2024/04/15 07:20:21;;;;;;;6.60;4.65;;;;;;;;;;5495749;26;20360;-84
2024/04/15 07:22:47;;;;;;;6.10;4.20;;;;;;;;;;5494633;26;20331;-84
2024/04/15 07:25:14;;;;;;;8.35;4.80;;;;;;;;;;5495402;26;20343;-84
2024/04/15 07:27:40;;;;;;;6.40;4.57;;;;;;;;;;5494497;26;20343;-84
2024/04/15 07:30:07;;;;;;;5.45;4.63;;;;;;;;;;5495257;26;20693;-84
2024/04/15 07:32:33;;;;;;;5.40;4.90;;;;;;;;;;5494928;26;20929;-84
2024/04/15 07:34:59;;;;;;;6.20;4.53;;;;;;;;;;5494934;26;20330;-84
2024/04/15 07:37:25;;;;;;;5.30;4.80;;;;;;;;;;5492663;26;20379;-83
2024/04/15 07:39:51;;;;;;;5.40;4.95;;;;;;;;;;5493917;26;20359;-83
2024/04/15 07:42:17;;;;;;;6.93;5.00;;;;;;;;;;5479247;26;20322;-84
2024/04/15 07:44:46;;;;;;;5.70;5.20;;;;;;;;;;5493604;26;20326;-83
2024/04/15 07:47:12;;;;;;;5.97;5.47;;;;;;;;;;5492510;26;20680;-83
2024/04/15 07:49:38;;;;;;;6.00;5.50;;;;;;;;;;5493781;26;20880;-83
2024/04/15 07:52:05;;;;;;;6.20;5.55;;;;;;;;;;5494691;26;20322;-83
2024/04/15 07:54:31;;;;;;;6.50;5.90;;;;;;;;;;5494459;26;20431;-84
2024/04/15 07:56:57;;;;;;;5.90;5.40;;;;;;;;;;5495192;26;20357;-83
2024/04/15 07:59:23;;;;;;;6.20;5.70;;;;;;;;;;5493245;26;20828;-84
2024/04/15 08:01:49;;;;;;;5.95;5.50;;;;;;;;;;5493735;26;20396;-84
2024/04/15 08:04:15;;;;;;;6.68;6.15;;;;;;;;;;5493739;26;20334;-83
2024/04/15 08:06:41;;;;;;;6.72;6.10;;;;;;;;;;5493594;26;20334;-83
2024/04/15 08:09:07;;;;;;;6.88;6.32;;;;;;;;;;5493132;26;20322;-83
2024/04/15 08:11:34;;;;;;;6.80;6.20;;;;;;;;;;5493488;26;20834;-83
2024/04/15 08:14:01;;;;;;;5.78;5.28;;;;;;;;;;5493164;26;20311;-84
2024/04/15 08:16:27;;;;;;;6.45;5.75;;;;;;;;;;5493734;26;20322;-83
2024/04/15 08:18:53;;;;;;;6.10;5.60;;;;;;;;;;5493578;26;20428;-84
2024/04/15 08:21:20;;;;;;;5.90;5.40;;;;;;;;;;5493159;26;20392;-83
2024/04/15 08:23:46;;;;;;;6.35;5.75;;;;;;;;;;5494111;26;20387;-83
2024/04/15 08:26:12;;;;;;;6.57;5.80;;;;;;;;;;5491375;26;20314;-84
2024/04/15 08:28:38;;;;;;;7.00;6.35;;;;;;;;;;5492402;26;20476;-83
2024/04/15 08:31:04;;;;;;;7.57;6.38;;;;;;;;;;5492532;26;20326;-84
2024/04/15 08:33:30;;;;;;;7.10;6.40;;;;;;;;;;5492878;26;20359;-83
2024/04/15 08:35:56;;;;;;;6.15;5.65;;;;;;;;;;5492704;26;20407;-83
2024/04/15 08:38:22;;;;;;;6.15;5.60;;;;;;;;;;5492780;26;20319;-83
2024/04/15 08:40:51;;;;;;;8.23;5.55;;;;;;;;;;5491365;26;20326;-83
2024/04/15 08:43:19;;;;;;;5.97;5.38;;;;;;;;;;5491881;26;20350;-83
2024/04/15 08:45:46;;;;;;;7.93;5.72;;;;;;;;;;5492784;26;20710;-83
2024/04/15 08:48:12;;;;;;;6.60;5.30;;;;;;;;;;5492719;26;20374;-83
2024/04/15 08:50:41;;;;;;;5.80;5.30;;;;;;;;;;5493357;26;20318;-83
2024/04/15 08:53:07;;;;;;;5.57;5.07;;;;;;;;;;5486530;26;20334;-83
2024/04/15 08:55:33;;;;;;;5.97;5.47;;;;;;;;;;5492358;26;20875;-84
2024/04/15 08:57:59;;;;;;;5.65;5.05;;;;;;;;;;5493138;26;20435;-84
2024/04/15 09:00:25;;;;;;;5.80;5.30;;;;;;;;;;5492806;26;20333;-84
2024/04/15 09:02:52;;;;;;;5.28;4.78;;;;;;;;;;5492879;26;21070;-84
2024/04/15 09:05:18;;;;;;;5.75;5.25;;;;;;;;;;5492869;26;20322;-84
2024/04/15 09:07:44;;;;;;;5.43;4.93;;;;;;;;;;5493077;26;20311;-84
2024/04/15 09:10:12;;;;;;;5.57;4.93;;;;;;;;;;5492926;26;20766;-84
2024/04/15 09:12:41;;;;;;;6.25;5.22;;;;;;;;;;5493225;26;20320;-84
2024/04/15 09:15:09;;;;;;;5.10;4.70;;;;;;;;;;5493109;26;20369;-84
2024/04/15 09:17:36;;;;;;;6.43;5.57;;;;;;;;;;5493114;26;20361;-84
2024/04/15 09:20:02;;;;;;;5.80;5.30;;;;;;;;;;5491719;26;20342;-84
2024/04/15 09:22:32;;;;;;;5.40;5.00;;;;;;;;;;5493489;26;20322;-84
2024/04/15 09:24:58;;;;;;;5.87;5.00;;;;;;;;;;5493930;26;20389;-84
2024/04/15 09:27:25;;;;;;;6.40;4.40;;;;;;;;;;5493912;26;20318;-84
2024/04/15 09:29:51;;;;;;;5.40;4.90;;;;;;;;;;5494600;26;20319;-84
2024/04/15 09:32:19;;;;;;;5.60;5.00;;;;;;;;;;5494654;26;20379;-84
2024/04/15 09:34:45;;;;;;;5.38;4.45;;;;;;;;;;5494463;26;20322;-84
2024/04/15 09:37:12;;;;;;;5.63;5.03;;;;;;;;;;5495449;26;20318;-84
2024/04/15 09:39:38;;;;;;;5.57;5.07;;;;;;;;;;5497581;26;20322;-84
2024/04/15 09:42:05;;;;;;;5.63;5.03;;;;;;;;;;5497447;26;20326;-84
2024/04/15 09:44:32;;;;;;;5.60;5.03;;;;;;;;;;5497248;26;20322;-84
2024/04/15 09:46:59;;;;;;;5.20;4.67;;;;;;;;;;5496638;26;20314;-84
2024/04/15 09:49:26;;;;;;;5.87;5.27;;;;;;;;;;5496635;26;21064;-84
2024/04/15 09:51:53;;;;;;;6.22;5.28;;;;;;;;;;5496939;26;20314;-85
2024/04/15 09:54:27;;;;;;;5.63;5.13;;;;;;;;;;5497657;26;20688;-85
2024/04/15 09:56:56;;;;;;;6.32;5.15;;;;;;;;;;5496664;26;20370;-85
2024/04/15 09:59:22;;;;;;;5.43;5.03;;;;;;;;;;5497039;26;20856;-85
2024/04/15 10:01:50;;;;;;;5.90;5.25;;;;;;;;;;5498545;26;20357;-86
2024/04/15 10:04:21;;;;;;;5.38;4.88;;;;;;;;;;5498217;26;20414;-85
2024/04/15 10:06:48;;;;;;;5.57;5.00;;;;;;;;;;5497526;26;20380;-85
2024/04/15 10:09:15;;;;;;;5.45;4.95;;;;;;;;;;5496681;26;20334;-85
2024/04/15 10:11:41;;;;;;;8.67;4.37;;;;;;;;;;5497421;26;20370;-85
2024/04/15 10:14:08;;;;;;;4.80;4.30;;;;;;;;;;5498229;26;20707;-85
2024/04/15 10:16:37;;;;;;;4.50;3.88;;;;;;;;;;5498013;26;20408;-85
2024/04/15 10:19:03;;;;;;;4.97;4.20;;;;;;;;;;5496701;26;20405;-85
2024/04/15 10:21:29;;;;;;;4.60;4.20;;;;;;;;;;5497071;26;20322;-86
2024/04/15 10:23:56;;;;;;;4.28;3.88;;;;;;;;;;5496587;26;20362;-85
2024/04/15 10:26:24;;;;;;;4.72;4.05;;;;;;;;;;5513284;21;20334;-84
2024/04/15 10:28:50;;;;;;;5.13;3.70;;;;;;;;;;5503242;26;20704;-84
2024/04/15 10:31:20;;;;;;;4.22;3.70;;;;;;;;;;5503017;26;20374;-83
2024/04/15 10:33:50;;;;;;;4.10;3.60;;;;;;;;;;5479030;26;20327;-83
2024/04/15 10:36:16;;;;;;;5.45;3.90;;;;;;;;;;5502727;26;20347;-85
2024/04/15 10:38:49;;;;;;;3.25;2.97;;;;;;;;;;5502445;26;20318;-83
2024/04/15 10:41:20;;;;;;;4.43;3.30;;;;;;;;;;5503852;26;20326;-85
2024/04/15 10:43:46;;;;;;;4.45;3.33;;;;;;;;;;5502722;26;20325;-84
2024/04/15 10:46:14;;;;;;;4.20;3.30;;;;;;;;;;5500159;26;20318;-84
2024/04/15 10:48:40;;;;;;;4.60;3.10;;;;;;;;;;5498300;26;20338;-84
2024/04/15 10:51:07;;;;;;;7.95;3.28;;;;;;;;;;5500061;26;20326;-85
2024/04/15 10:53:33;;;;;;;3.47;3.00;;;;;;;;;;5499852;26;20330;-85
2024/04/15 10:55:59;;;;;;;3.78;3.03;;;;;;;;;;5498526;26;20362;-84
2024/04/15 10:58:25;;;;;;;4.13;3.20;;;;;;;;;;5501633;26;20334;-86
2024/04/15 11:00:51;;;;;;;4.60;3.38;;;;;;;;;;5502175;26;20322;-83
2024/04/15 11:03:18;;;;;;;3.70;3.40;;;;;;;;;;5503646;26;20449;-84
2024/04/15 11:05:44;;;;;;;4.30;3.88;;;;;;;;;;5503490;26;20326;-84
2024/04/15 11:08:13;;;;;;;4.72;4.22;;;;;;;;;;5504548;26;20319;-83
2024/04/15 11:10:39;;;;;;;5.35;4.18;;;;;;;;;;5501499;26;20338;-84
2024/04/15 11:13:09;;;;;;;5.20;4.70;;;;;;;;;;5503490;26;20359;-83
2024/04/15 11:15:35;;;;;;;5.03;4.55;;;;;;;;;;5502484;26;20326;-84
2024/04/15 11:18:01;;;;;;;5.32;4.60;;;;;;;;;;5502481;26;20345;-84
2024/04/15 11:20:27;;;;;;;5.70;5.10;;;;;;;;;;5498704;26;20344;-84
2024/04/15 11:22:53;;;;;;;5.82;5.38;;;;;;;;;;5492427;26;20322;-86
2024/04/15 11:25:19;;;;;;;5.20;4.80;;;;;;;;;;5502113;26;20330;-84
2024/04/15 11:28:04;;;;;;;6.28;5.22;;;;;;;;;;5502290;26;20370;-85
2024/04/15 11:30:30;;;;;;;5.35;4.47;;;;;;;;;;5479159;26;20318;-85
2024/04/15 11:32:58;;;;;;;6.45;4.53;;;;;;;;;;5502769;26;20326;-85
2024/04/15 11:35:24;;;;;;;4.82;4.43;;;;;;;;;;5499634;26;20327;-85
2024/04/15 11:37:55;;;;;;;5.40;4.53;;;;;;;;;;5492014;26;20928;-85
2024/04/15 11:40:21;;;;;;;4.97;4.50;;;;;;;;;;5499360;26;20330;-85
2024/04/15 11:42:47;;;;;;;5.45;4.95;;;;;;;;;;5502346;26;20448;-85
2024/04/15 11:45:14;;;;;;;4.72;4.20;;;;;;;;;;5502218;26;20349;-85
2024/04/15 11:47:40;;;;;;;5.20;4.70;;;;;;;;;;5502326;26;20338;-85
2024/04/15 11:50:07;;;;;;;4.75;4.25;;;;;;;;;;5501554;26;20323;-85
2024/04/15 11:52:33;;;;;;;4.80;4.40;;;;;;;;;;5500774;26;20371;-85
2024/04/15 11:54:59;;;;;;;5.07;4.57;;;;;;;;;;5493977;26;20371;-85
2024/04/15 11:57:25;;;;;;;5.47;4.78;;;;;;;;;;5499603;26;20435;-86
2024/04/15 11:59:52;;;;;;;6.07;4.37;;;;;;;;;;5496495;26;20370;-86
2024/04/15 12:02:18;;;;;;;4.60;4.15;;;;;;;;;;5499067;26;20445;-86
2024/04/15 12:04:47;;;;;;;4.68;4.10;;;;;;;;;;5498995;26;20376;-87
2024/04/15 12:07:13;;;;;;;5.03;4.10;;;;;;;;;;5498522;26;20314;-86
2024/04/15 12:09:41;;;;;;;4.07;3.78;;;;;;;;;;5495595;26;20369;-87
2024/04/15 12:12:07;;;;;;;5.30;3.78;;;;;;;;;;5497685;26;20342;-85
2024/04/15 12:14:33;;;;;;;5.30;3.97;;;;;;;;;;5499622;26;20346;-87
2024/04/15 12:16:59;;;;;;;5.47;4.17;;;;;;;;;;5474919;26;20333;-86
2024/04/15 12:19:25;;;;;;;4.78;3.70;;;;;;;;;;5499160;26;20326;-85
2024/04/15 12:21:51;;;;;;;5.00;3.83;;;;;;;;;;5499961;26;20406;-86
2024/04/15 12:24:17;;;;;;;3.60;3.30;;;;;;;;;;5498047;26;20351;-87
2024/04/15 12:26:43;;;;;;;3.77;3.10;;;;;;;;;;5496580;26;20319;-86
2024/04/15 12:29:09;;;;;;;3.85;3.17;;;;;;;;;;5497830;26;20319;-87
2024/04/15 12:31:35;;;;;;;3.50;3.00;;;;;;;;;;5498543;26;20378;-86
2024/04/15 12:34:01;;;;;;;4.57;3.25;;;;;;;;;;5500480;26;20397;-86
2024/04/15 12:36:27;;;;;;;5.25;3.47;;;;;;;;;;5500269;26;20468;-86
2024/04/15 12:38:53;;;;;;;4.43;3.03;;;;;;;;;;5502083;26;20323;-86
2024/04/15 12:41:19;;;;;;;4.13;3.13;;;;;;;;;;5501815;26;20314;-86
2024/04/15 12:43:46;;;;;;;4.27;3.20;;;;;;;;;;5502085;26;20463;-86
2024/04/15 12:46:12;;;;;;;3.72;2.78;;;;;;;;;;5501891;26;20354;-85
2024/04/15 12:48:38;;;;;;;3.80;3.00;;;;;;;;;;5500201;26;20350;-86
2024/04/15 12:51:04;;;;;;;3.47;3.13;;;;;;;;;;5500851;26;20407;-86
2024/04/15 12:53:30;;;;;;;3.63;2.60;;;;;;;;;;5500793;26;20318;-86
2024/04/15 12:55:57;;;;;;;4.32;2.80;;;;;;;;;;5498453;26;20326;-86
2024/04/15 12:58:23;;;;;;;4.47;2.63;;;;;;;;;;5499705;26;20366;-86
2024/04/15 13:00:49;;;;;;;3.78;2.80;;;;;;;;;;5499274;26;20334;-86
2024/04/15 13:03:15;;;;;;;3.42;2.20;;;;;;;;;;5499119;26;20329;-86
2024/04/15 13:05:41;;;;;;;3.55;2.40;;;;;;;;;;5498362;26;20827;-85
2024/04/15 13:08:08;;;;;;;4.90;2.38;;;;;;;;;;5499544;26;20334;-86
2024/04/15 13:10:34;;;;;;;4.63;2.25;;;;;;;;;;5481692;26;20363;-86
2024/04/15 13:13:00;;;;;;;2.15;1.88;;;;;;;;;;5496373;26;20326;-87
2024/04/15 13:15:26;;;;;;;2.58;1.75;;;;;;;;;;5496126;26;20331;-86
2024/04/15 13:17:55;;;;;;;5.32;1.70;;;;;;;;;;5496928;26;20816;-86
2024/04/15 13:20:22;;;;;;;2.13;1.70;;;;;;;;;;5497151;26;20323;-86
2024/04/15 13:22:54;;;;;;;2.75;1.40;;;;;;;;;;5496853;26;20370;-86
2024/04/15 13:25:20;;;;;;;3.17;1.50;;;;;;;;;;5496589;26;20353;-86
2024/04/15 13:27:46;;;;;;;2.23;1.43;;;;;;;;;;5495715;26;20354;-87
2024/04/15 13:30:12;;;;;;;1.85;1.33;;;;;;;;;;5491713;26;20375;-86
2024/04/15 13:32:38;;;;;;;3.22;1.50;;;;;;;;;;5496234;26;20334;-86
2024/04/15 13:35:05;;;;;;;2.30;1.58;;;;;;;;;;5492892;26;20405;-86
2024/04/15 13:37:30;;;;;;;2.50;1.40;;;;;;;;;;5496388;26;20330;-86
2024/04/15 13:39:56;;;;;;;2.45;1.30;;;;;;;;;;5492358;26;20327;-86
2024/04/15 13:42:22;;;;;;;3.53;1.30;;;;;;;;;;5494950;26;20351;-86
2024/04/15 13:44:48;;;;;;;2.90;1.15;;;;;;;;;;5495836;26;20338;-86
2024/04/15 13:47:14;;;;;;;4.47;1.17;;;;;;;;;;5496671;26;20329;-86
2024/04/15 13:49:40;;;;;;;2.83;1.20;;;;;;;;;;5479772;26;20369;-86
2024/04/15 13:52:06;;;;;;;4.63;1.30;;;;;;;;;;5496259;26;20322;-86
2024/04/15 13:54:32;;;;;;;1.58;1.10;;;;;;;;;;5495326;26;20314;-86
2024/04/15 13:56:58;;;;;;;3.33;1.20;;;;;;;;;;5495124;26;20374;-86
2024/04/15 13:59:25;;;;;;;4.68;1.10;;;;;;;;;;5495034;26;20334;-86
2024/04/15 14:01:51;;;;;;;1.80;1.20;;;;;;;;;;5495987;26;20382;-87
2024/04/15 14:04:17;;;;;;;3.53;1.20;;;;;;;;;;5496493;26;20319;-86
2024/04/15 14:06:43;;;;;;;3.00;1.10;;;;;;;;;;5496766;26;20369;-86
2024/04/15 14:09:14;;;;;;;4.23;1.10;;;;;;;;;;5496759;26;20331;-86
2024/04/15 14:11:40;;;;;;;5.53;1.20;;;;;;;;;;5495284;26;20386;-86
2024/04/15 14:14:06;;;;;;;4.20;1.13;;;;;;;;;;5497291;26;20330;-85
2024/04/15 14:16:32;;;;;;;1.85;1.08;;;;;;;;;;5494243;26;20386;-86
2024/04/15 14:18:59;;;;;;;4.40;1.15;;;;;;;;;;5496338;26;20342;-86
2024/04/15 14:21:25;;;;;;;5.00;1.40;;;;;;;;;;5496095;26;20391;-86
2024/04/15 14:23:51;;;;;;;1.43;1.00;;;;;;;;;;5499326;26;20437;-86
2024/04/15 14:26:18;;;;;;;1.20;0.70;;;;;;;;;;5501214;26;20350;-88
2024/04/15 14:28:45;;;;;;;1.45;1.08;;;;;;;;;;5500808;26;20440;-86
2024/04/15 14:31:11;;;;;;;3.10;0.95;;;;;;;;;;5500559;26;20310;-86
2024/04/15 14:33:37;;;;;;;1.88;0.88;;;;;;;;;;5501406;26;20330;-86
2024/04/15 14:36:03;;;;;;;1.60;0.90;;;;;;;;;;5500287;26;20354;-86
2024/04/15 14:38:29;;;;;;;2.00;0.95;;;;;;;;;;5493439;26;20358;-86